メインページ
METAR-TAF:

METAR-TAF

空港 :

カルガリー, アルバータ州, カナダ

カルガリー国際空港

緯度: 51-07N, 経度: 114-01W, 海抜: 1077m

現時点の気象観測

当レポートは39分前の10:00(UTC)に作成
の風 8kt
気温 1°C
湿度 47%
気圧 1006 hPa
視程: 24.1km
高度13000ftの雲はほとんどない
高度18000ftの千切れ雲あり
高度22000ftの千切れ雲あり

METAR: CYYC 191000Z 18008KT 15SM FEW130 BKN180 BKN220 01/M09 A2970 RMK AC2AS3CI2 SLP097

時間: 03:39 (10:39 UTC)

予報

当レポートは2時間1分前の08:38(UTC)に作成
予報は19日の 09時(UTC)から 20日の 06時(UTC)まで有効
西/南西の風 10kt
視程: 10km
高度12000ftの雲はほとんどない
高度18000ftの雲は散在している
19日の 18時(UTC)から 19日の 20時(UTC)まで徐々に
西/南西の風 12kt、最大22ktの突風を伴う
19日の 22時(UTC)から 19日の 24時(UTC)まで徐々に
西の風 15kt、最大25ktの突風を伴う

TAF: CYYC 190838Z 1909/2006 24010KT P6SM FEW120 SCT180 BECMG 1918/1920 24012G22KT BECMG 1922/1924 26015G25KT RMK NXT FCST BY 191200Z

4,000以上の空港の気象観測と天気予報(METAR報とTAF報)

利用可能な観測所は地図上に黄色い丸と赤い丸で示す。

丸の上にカーソルを重ねると観測所名を参照できる。

次にクリックすると気象観測と天気予報を参照できる。

マップの切り替え:黒色「×」印の緑ボタンをクリックして拡大、「-」印の緑ボタンをクリックして縮小、緑色の三角印をクリックして隣りの地図に切り替え


METAR-TAF: